createdAt,value
2022-11-09T00:01:57.483Z,99930.63
2022-11-09T00:04:44.801Z,99916.59
2022-11-09T00:07:32.600Z,99920.00
2022-11-09T00:10:21.984Z,99918.03
2022-11-09T00:13:09.668Z,99913.13
2022-11-09T00:15:59.661Z,99906.28
2022-11-09T00:18:47.564Z,99906.09
2022-11-09T00:21:34.637Z,99918.16
2022-11-09T00:24:21.989Z,99915.94
2022-11-09T00:27:15.173Z,99902.13
2022-11-09T00:30:04.759Z,99915.34
2022-11-09T00:32:52.298Z,99917.53
2022-11-09T00:35:39.983Z,99913.38
2022-11-09T00:38:26.938Z,99910.94
2022-11-09T00:41:14.505Z,99914.88
2022-11-09T00:44:03.666Z,99905.81
2022-11-09T00:46:51.395Z,99901.41
2022-11-09T00:49:38.708Z,99904.16
2022-11-09T00:52:26.306Z,99901.50
2022-11-09T00:55:14.018Z,99916.44
2022-11-09T00:58:01.908Z,99909.03
2022-11-09T01:00:50.988Z,99882.75
2022-11-09T01:03:38.602Z,99901.53
2022-11-09T01:06:27.323Z,99894.28
2022-11-09T01:09:14.490Z,99911.31
2022-11-09T01:12:01.901Z,99896.88
2022-11-09T01:14:49.459Z,99907.63
2022-11-09T01:17:38.374Z,99913.94
2022-11-09T01:20:25.635Z,99899.66
2022-11-09T01:23:15.201Z,99914.97
2022-11-09T01:26:03.782Z,99910.53
2022-11-09T01:28:51.931Z,99912.44
2022-11-09T01:31:39.198Z,99915.56
2022-11-09T01:34:29.321Z,99884.75
2022-11-09T01:37:16.660Z,99897.69
2022-11-09T01:40:03.983Z,99899.09
2022-11-09T01:42:53.428Z,99889.06
2022-11-09T01:45:41.317Z,99885.03
2022-11-09T01:48:38.058Z,99890.72
2022-11-09T01:51:31.932Z,99895.63
2022-11-09T01:54:26.078Z,99891.34
2022-11-09T01:57:21.328Z,99886.22
2022-11-09T02:00:10.927Z,99887.28
2022-11-09T02:03:06.960Z,99883.84
2022-11-09T02:05:56.047Z,99887.41
2022-11-09T02:08:47.252Z,99875.72
2022-11-09T02:11:37.384Z,99887.88
2022-11-09T02:14:26.841Z,99869.25
2022-11-09T02:17:15.970Z,99875.00
2022-11-09T02:20:04.530Z,99862.69
2022-11-09T02:22:53.297Z,99873.44
2022-11-09T02:25:42.428Z,99869.59
2022-11-09T02:28:31.791Z,99868.28
2022-11-09T02:31:19.851Z,99869.50
2022-11-09T02:34:11.057Z,99866.88
2022-11-09T02:36:58.672Z,99862.81
2022-11-09T02:39:47.564Z,99864.50
2022-11-09T02:42:36.634Z,99869.25
2022-11-09T02:45:23.864Z,99871.88
2022-11-09T02:48:11.221Z,99864.50
2022-11-09T02:50:58.880Z,99858.41
2022-11-09T02:53:47.757Z,99854.81
2022-11-09T02:56:36.887Z,99852.06
2022-11-09T02:59:23.985Z,99855.19
2022-11-09T03:02:11.662Z,99861.16
2022-11-09T03:05:00.112Z,99854.34
2022-11-09T03:07:47.549Z,99858.03
2022-11-09T03:10:35.638Z,99864.75
2022-11-09T03:13:24.156Z,99867.34
2022-11-09T03:16:11.617Z,99876.34
2022-11-09T03:19:00.765Z,99868.28
2022-11-09T03:21:48.891Z,99864.94
2022-11-09T03:24:36.141Z,99870.31
2022-11-09T03:27:23.643Z,99872.69
2022-11-09T03:30:13.196Z,99876.34
2022-11-09T03:33:02.240Z,99880.09
2022-11-09T03:35:50.003Z,99874.88
2022-11-09T03:38:38.997Z,99877.09
2022-11-09T03:41:26.352Z,99867.69
2022-11-09T03:44:13.746Z,99883.81
2022-11-09T03:47:02.593Z,99880.94
2022-11-09T03:49:50.215Z,99884.22
2022-11-09T03:52:38.563Z,99884.34
2022-11-09T03:55:29.697Z,99886.31
2022-11-09T03:58:17.177Z,99885.69
2022-11-09T04:01:05.151Z,99891.56
2022-11-09T04:03:54.038Z,99903.44
2022-11-09T04:06:41.582Z,99903.09
2022-11-09T04:09:28.825Z,99896.28
2022-11-09T04:12:16.449Z,99889.84
2022-11-09T04:15:03.744Z,99894.31
2022-11-09T04:17:58.358Z,99888.41
2022-11-09T04:20:47.354Z,99886.59
2022-11-09T04:23:34.542Z,99883.50
2022-11-09T04:26:22.395Z,99890.78
2022-11-09T04:29:10.016Z,99894.38
2022-11-09T04:31:57.639Z,99889.19
2022-11-09T04:34:44.964Z,99897.19
2022-11-09T04:37:33.597Z,99897.09
2022-11-09T04:40:21.465Z,99894.34
2022-11-09T04:43:12.945Z,99901.75
2022-11-09T04:46:02.035Z,99907.19
2022-11-09T04:48:49.105Z,99914.31
2022-11-09T04:51:36.609Z,99913.06
2022-11-09T04:54:25.859Z,99908.47
2022-11-09T04:57:13.290Z,99917.88
2022-11-09T05:00:00.880Z,99914.00
2022-11-09T05:02:48.164Z,99917.56
2022-11-09T05:05:36.346Z,99916.22
2022-11-09T05:08:23.467Z,99913.88
2022-11-09T05:11:12.085Z,99919.44
2022-11-09T05:13:59.996Z,99915.13
2022-11-09T05:16:47.178Z,99915.13
2022-11-09T05:19:34.479Z,99927.56
2022-11-09T05:22:39.548Z,99928.81
2022-11-09T05:25:27.204Z,99920.78
2022-11-09T05:28:16.261Z,99923.63
2022-11-09T05:31:03.828Z,99920.16
2022-11-09T05:33:52.312Z,99912.56
2022-11-09T05:36:39.599Z,99918.50
2022-11-09T05:39:26.647Z,99910.66
2022-11-09T05:42:14.115Z,99909.47
2022-11-09T05:45:27.914Z,99909.00
2022-11-09T05:48:12.086Z,99887.19
2022-11-09T05:51:02.189Z,99914.09
2022-11-09T05:53:49.956Z,99909.25
2022-11-09T05:56:37.338Z,99914.53
2022-11-09T05:59:24.785Z,99917.00
2022-11-09T06:02:13.797Z,99912.91
2022-11-09T06:05:01.395Z,99916.34
2022-11-09T06:07:48.615Z,99922.91
2022-11-09T06:10:35.899Z,99913.16
2022-11-09T06:13:23.487Z,99922.91
2022-11-09T06:16:11.597Z,99919.50
2022-11-09T06:19:01.969Z,99920.31
2022-11-09T06:21:49.157Z,99922.19
2022-11-09T06:24:36.837Z,99914.47
2022-11-09T06:27:24.365Z,99924.25
2022-11-09T06:30:13.268Z,99928.53
2022-11-09T06:33:01.259Z,99928.94
2022-11-09T06:35:54.922Z,99931.91
2022-11-09T06:38:43.495Z,99934.19
2022-11-09T06:41:31.118Z,99954.97
2022-11-09T06:44:19.886Z,99935.34
2022-11-09T06:47:07.210Z,99943.28
2022-11-09T06:49:54.461Z,99947.94
2022-11-09T06:52:43.313Z,99953.50
2022-11-09T06:55:32.140Z,99961.44
2022-11-09T06:58:20.021Z,99962.84
2022-11-09T07:01:12.744Z,99969.69
2022-11-09T07:04:00.363Z,99971.53
2022-11-09T07:06:47.635Z,99973.25
2022-11-09T07:09:36.456Z,99968.59
2022-11-09T07:12:24.006Z,99964.66
2022-11-09T07:15:12.549Z,99969.19
2022-11-09T07:18:01.856Z,99973.09
2022-11-09T07:20:49.662Z,99985.97
2022-11-09T07:23:37.300Z,99985.69
2022-11-09T07:26:26.225Z,99968.63
2022-11-09T07:29:13.294Z,99965.59
2022-11-09T07:32:00.889Z,99982.25
2022-11-09T07:34:48.702Z,99977.84
2022-11-09T07:37:35.936Z,99981.03
2022-11-09T07:40:23.959Z,99984.44
2022-11-09T07:43:13.551Z,99980.50
2022-11-09T07:46:05.529Z,99991.72
2022-11-09T07:48:52.627Z,99988.44
2022-11-09T07:51:39.869Z,99971.34
2022-11-09T07:54:27.678Z,99981.56
2022-11-09T07:57:15.118Z,99984.78
2022-11-09T08:00:04.527Z,99979.28
2022-11-09T08:02:59.354Z,99989.25
2022-11-09T08:05:46.992Z,99991.28
2022-11-09T08:08:34.975Z,99990.06
2022-11-09T08:11:22.280Z,99989.25
2022-11-09T08:14:09.867Z,99990.97
2022-11-09T08:16:58.615Z,99992.50
2022-11-09T08:19:45.790Z,100006.50
2022-11-09T08:22:33.251Z,99999.00
2022-11-09T08:25:20.915Z,100004.59
2022-11-09T08:28:14.309Z,100005.78
2022-11-09T08:31:09.116Z,100009.69
2022-11-09T08:33:57.959Z,100007.72
2022-11-09T08:36:45.212Z,100015.09
2022-11-09T08:39:32.764Z,100016.38
2022-11-09T08:42:20.185Z,100017.50
2022-11-09T08:45:09.014Z,100011.06
2022-11-09T08:47:59.962Z,100019.88
2022-11-09T08:50:53.790Z,100025.53
2022-11-09T08:53:40.595Z,100028.47
2022-11-09T08:56:28.207Z,100019.63
2022-11-09T08:59:15.475Z,100032.28
2022-11-09T09:02:03.928Z,100026.34
2022-11-09T09:04:51.503Z,100022.88
2022-11-09T09:07:40.508Z,100020.13
2022-11-09T09:10:27.902Z,100020.03
2022-11-09T09:13:15.201Z,100037.53
2022-11-09T09:16:10.969Z,100032.09
2022-11-09T09:18:58.644Z,100049.41
2022-11-09T09:21:46.784Z,100045.22
2022-11-09T09:24:35.372Z,100042.63
2022-11-09T09:27:22.961Z,100044.75
2022-11-09T09:30:11.467Z,100050.22
2022-11-09T09:33:01.918Z,100043.09
2022-11-09T09:35:49.069Z,100057.38
2022-11-09T09:38:36.493Z,100059.34
2022-11-09T09:41:29.847Z,100046.03
2022-11-09T09:44:28.916Z,100059.56
2022-11-09T09:47:22.507Z,100057.34
2022-11-09T09:50:15.090Z,100053.25
2022-11-09T09:53:23.765Z,100052.47
2022-11-09T09:56:16.342Z,100073.50
2022-11-09T09:59:14.150Z,100058.19
2022-11-09T10:02:01.737Z,100069.09
2022-11-09T10:04:49.801Z,100061.03
2022-11-09T10:07:43.155Z,100065.69
2022-11-09T10:10:44.392Z,100060.75
2022-11-09T10:13:43.167Z,100062.94
2022-11-09T10:16:40.416Z,100065.22
2022-11-09T10:19:41.015Z,100055.19
2022-11-09T10:22:38.816Z,100045.75
2022-11-09T10:25:57.846Z,100055.31
2022-11-09T10:29:13.927Z,100052.84
2022-11-09T10:31:53.339Z,100045.88
2022-11-09T10:34:45.185Z,100049.69
2022-11-09T10:37:38.795Z,100042.16
2022-11-09T10:40:30.067Z,100044.69
2022-11-09T10:43:36.551Z,100034.03
2022-11-09T10:47:07.018Z,100043.25
2022-11-09T10:50:23.833Z,100040.41
2022-11-09T10:53:31.284Z,100045.91
2022-11-09T10:57:05.614Z,100039.19
2022-11-09T11:00:17.227Z,100025.44
2022-11-09T11:03:25.454Z,100049.22
2022-11-09T11:06:31.775Z,100050.06
2022-11-09T11:09:38.454Z,100052.66
2022-11-09T11:12:46.562Z,100047.41
2022-11-09T11:15:53.663Z,100053.78
2022-11-09T11:19:01.361Z,100038.09
2022-11-09T11:22:22.809Z,100038.09
2022-11-09T11:25:29.225Z,100035.72
2022-11-09T11:28:41.019Z,100038.22
2022-11-09T11:31:47.352Z,100033.06
2022-11-09T11:35:00.237Z,100031.16
2022-11-09T11:38:19.426Z,100038.94
2022-11-09T11:41:53.077Z,100025.53
2022-11-09T11:45:39.730Z,100037.41
2022-11-09T11:49:22.422Z,100032.84
2022-11-09T11:52:39.750Z,100049.69
2022-11-09T11:56:05.939Z,100054.59
2022-11-09T11:59:39.436Z,100060.56
2022-11-09T12:03:16.134Z,100057.84
2022-11-09T12:06:46.287Z,100051.25
2022-11-09T12:10:09.748Z,100049.69
2022-11-09T12:13:27.120Z,100057.25
2022-11-09T12:16:40.449Z,100057.25
2022-11-09T12:20:16.020Z,100054.84
2022-11-09T12:23:36.546Z,100058.66
2022-11-09T12:27:25.457Z,100045.94
2022-11-09T12:30:32.193Z,100046.75
2022-11-09T12:33:46.860Z,100047.63
2022-11-09T12:36:57.691Z,100059.34
2022-11-09T12:40:14.754Z,100051.91
2022-11-09T12:43:26.533Z,100059.88
2022-11-09T12:46:37.940Z,100064.63
2022-11-09T12:49:47.487Z,100060.59
2022-11-09T12:52:54.357Z,100059.63
2022-11-09T12:56:09.532Z,100071.44
2022-11-09T12:59:34.475Z,100072.19
2022-11-09T13:02:52.019Z,100078.13
2022-11-09T13:06:17.858Z,100058.91
2022-11-09T13:09:25.810Z,100078.50
2022-11-09T13:12:38.845Z,100078.25
2022-11-09T13:16:31.368Z,100079.66
2022-11-09T13:19:56.607Z,100093.88
2022-11-09T13:23:04.683Z,100095.31
2022-11-09T13:26:24.268Z,100091.84
2022-11-09T13:29:51.067Z,100087.78
2022-11-09T13:33:28.468Z,100087.91
2022-11-09T13:36:34.463Z,100097.84
2022-11-09T13:39:41.048Z,100093.44
2022-11-09T13:42:58.582Z,100094.63
2022-11-09T13:46:22.949Z,100099.28
2022-11-09T13:49:51.423Z,100101.53
2022-11-09T13:52:59.065Z,100106.66
2022-11-09T13:56:16.959Z,100108.09
2022-11-09T13:59:28.281Z,100112.72
2022-11-09T14:02:34.713Z,100120.81
2022-11-09T14:05:41.850Z,100125.84
2022-11-09T14:08:49.078Z,100126.94
2022-11-09T14:12:10.196Z,100127.97
2022-11-09T14:15:28.747Z,100131.19
2022-11-09T14:18:45.231Z,100130.94
2022-11-09T14:21:54.534Z,100134.75
2022-11-09T14:25:01.185Z,100140.25
2022-11-09T14:28:21.804Z,100133.88
2022-11-09T14:31:30.820Z,100140.09
2022-11-09T14:34:37.463Z,100147.03
2022-11-09T14:37:46.597Z,100142.09
2022-11-09T14:40:54.049Z,100133.44
2022-11-09T14:44:01.705Z,100146.28
2022-11-09T14:47:16.018Z,100138.75
2022-11-09T14:50:25.639Z,100144.84
2022-11-09T14:53:36.382Z,100135.72
2022-11-09T14:56:44.249Z,100136.41
2022-11-09T14:59:50.912Z,100131.81
2022-11-09T15:02:58.069Z,100138.38
2022-11-09T15:06:07.599Z,100148.53
2022-11-09T15:09:20.451Z,100147.38
2022-11-09T15:12:26.775Z,100167.28
2022-11-09T15:15:35.626Z,100167.66
2022-11-09T15:18:46.558Z,100169.38
2022-11-09T15:21:52.982Z,100169.44
2022-11-09T15:25:00.483Z,100178.00
2022-11-09T15:28:23.106Z,100162.09
2022-11-09T15:31:29.838Z,100170.78
2022-11-09T15:34:39.440Z,100166.66
2022-11-09T15:37:50.821Z,100182.31
2022-11-09T15:40:58.476Z,100168.00
2022-11-09T15:44:06.031Z,100175.44
2022-11-09T15:47:23.156Z,100165.91
2022-11-09T15:50:29.665Z,100172.84
2022-11-09T15:53:35.872Z,100188.19
2022-11-09T15:56:43.433Z,100185.06
2022-11-09T15:59:51.649Z,100179.97
2022-11-09T16:02:57.725Z,100187.75
2022-11-09T16:06:03.627Z,100205.28
2022-11-09T16:09:09.682Z,100218.97
2022-11-09T16:12:17.119Z,100215.16
2022-11-09T16:15:23.255Z,100214.97
2022-11-09T16:18:29.774Z,100212.56
2022-11-09T16:21:35.601Z,100217.00
2022-11-09T16:24:41.463Z,100219.56
2022-11-09T16:27:50.656Z,100220.41
2022-11-09T16:30:56.928Z,100223.44
2022-11-09T16:34:02.998Z,100232.69
2022-11-09T16:37:09.448Z,100237.28
2022-11-09T16:40:18.231Z,100239.00
2022-11-09T16:43:25.487Z,100236.91
2022-11-09T16:46:31.329Z,100255.03
2022-11-09T16:49:37.559Z,100261.22
2022-11-09T16:52:43.284Z,100257.19
2022-11-09T16:55:49.782Z,100256.63
2022-11-09T16:58:57.589Z,100269.47
2022-11-09T17:02:04.218Z,100278.38
2022-11-09T17:05:10.485Z,100291.69
2022-11-09T17:08:18.783Z,100287.94
2022-11-09T17:11:25.460Z,100304.16
2022-11-09T17:14:32.786Z,100297.19
2022-11-09T17:17:39.000Z,100316.78
2022-11-09T17:20:46.849Z,100320.97
2022-11-09T17:23:54.320Z,100323.72
2022-11-09T17:27:01.102Z,100328.13
2022-11-09T17:30:10.653Z,100322.28
2022-11-09T17:33:16.755Z,100323.00
2022-11-09T17:36:41.913Z,100332.13
2022-11-09T17:39:49.671Z,100328.56
2022-11-09T17:42:57.013Z,100339.97
2022-11-09T17:46:10.274Z,100340.59
2022-11-09T17:49:16.023Z,100341.41
2022-11-09T17:52:22.159Z,100344.63
2022-11-09T17:55:28.783Z,100349.69
2022-11-09T17:58:36.581Z,100350.56
2022-11-09T18:01:44.140Z,100358.59
2022-11-09T18:04:50.740Z,100343.91
2022-11-09T18:07:57.117Z,100362.84
2022-11-09T18:11:02.929Z,100371.69
2022-11-09T18:14:11.282Z,100367.91
2022-11-09T18:17:19.541Z,100375.25
2022-11-09T18:20:26.551Z,100375.28
2022-11-09T18:23:32.740Z,100376.75
2022-11-09T18:26:39.168Z,100381.00
2022-11-09T18:29:45.148Z,100387.31
2022-11-09T18:32:52.779Z,100385.19
2022-11-09T18:36:00.600Z,100397.00
2022-11-09T18:39:06.885Z,100402.47
2022-11-09T18:42:13.589Z,100405.63
2022-11-09T18:45:19.699Z,100405.81
2022-11-09T18:48:28.001Z,100405.41
2022-11-09T18:51:34.132Z,100415.06
2022-11-09T18:54:40.501Z,100427.06
2022-11-09T18:57:46.790Z,100426.03
2022-11-09T19:00:58.898Z,100426.03
2022-11-09T19:04:06.579Z,100427.94
2022-11-09T19:07:13.295Z,100438.41
2022-11-09T19:10:20.572Z,100434.66
2022-11-09T19:13:26.440Z,100434.00
2022-11-09T19:16:32.962Z,100443.47
2022-11-09T19:19:42.291Z,100450.84
2022-11-09T19:22:49.408Z,100453.38
2022-11-09T19:25:55.786Z,100451.66
2022-11-09T19:29:02.725Z,100453.38
2022-11-09T19:32:09.153Z,100469.78
2022-11-09T19:35:20.612Z,100463.88
2022-11-09T19:38:31.781Z,100467.88
2022-11-09T19:41:38.419Z,100476.50
2022-11-09T19:44:44.923Z,100487.03
2022-11-09T19:47:51.844Z,100506.34
2022-11-09T19:50:59.732Z,100504.69
2022-11-09T19:54:07.945Z,100504.03
2022-11-09T19:57:14.675Z,100506.75
2022-11-09T20:00:21.697Z,100503.84
2022-11-09T20:03:28.074Z,100518.59
2022-11-09T20:06:38.547Z,100519.63
2022-11-09T20:09:44.992Z,100530.38
2022-11-09T20:12:52.858Z,100527.63
2022-11-09T20:16:03.271Z,100537.06
2022-11-09T20:19:13.000Z,100547.63
2022-11-09T20:22:20.839Z,100545.50
2022-11-09T20:25:27.456Z,100546.97
2022-11-09T20:28:41.660Z,100552.88
2022-11-09T20:31:48.123Z,100562.53
2022-11-09T20:34:55.114Z,100571.19
2022-11-09T20:38:01.982Z,100575.38
2022-11-09T20:41:09.842Z,100576.66
2022-11-09T20:44:17.767Z,100591.81
2022-11-09T20:47:49.055Z,100591.16
2022-11-09T20:50:50.204Z,100594.97
2022-11-09T20:53:57.082Z,100607.75
2022-11-09T20:57:04.655Z,100603.97
2022-11-09T21:00:13.832Z,100603.97
2022-11-09T21:03:21.239Z,100617.44
2022-11-09T21:06:27.320Z,100609.00
2022-11-09T21:09:33.419Z,100623.28
2022-11-09T21:12:39.705Z,100617.34
2022-11-09T21:15:47.725Z,100621.59
2022-11-09T21:18:54.294Z,100622.66
2022-11-09T21:22:00.788Z,100628.59
2022-11-09T21:25:24.814Z,100629.19
2022-11-09T21:28:48.145Z,100633.75
2022-11-09T21:31:55.987Z,100631.69
2022-11-09T21:35:02.257Z,100647.00
2022-11-09T21:38:08.226Z,100646.78
2022-11-09T21:41:27.832Z,100655.22
2022-11-09T21:44:34.925Z,100654.78
2022-11-09T21:47:43.045Z,100666.53
2022-11-09T21:50:49.184Z,100665.94
2022-11-09T21:53:55.204Z,100667.41
2022-11-09T21:57:01.557Z,100663.75
2022-11-09T22:00:09.384Z,100664.81
2022-11-09T22:03:17.067Z,100677.03
2022-11-09T22:06:23.297Z,100674.22
2022-11-09T22:09:35.716Z,100674.22
2022-11-09T22:13:08.588Z,100686.25
2022-11-09T22:16:15.027Z,100684.25
2022-11-09T22:19:39.724Z,100691.59
2022-11-09T22:22:46.084Z,100666.41
2022-11-09T22:25:52.384Z,100683.06
2022-11-09T22:28:58.974Z,100675.06
2022-11-09T22:32:06.640Z,100683.09
2022-11-09T22:35:13.954Z,100694.91
2022-11-09T22:38:20.259Z,100695.97
2022-11-09T22:41:26.447Z,100706.22
2022-11-09T22:44:32.996Z,100708.44
2022-11-09T22:47:39.140Z,100707.53
2022-11-09T22:50:46.414Z,100715.88
2022-11-09T22:53:52.906Z,100711.59
2022-11-09T22:56:58.676Z,100727.47
2022-11-09T23:00:05.904Z,100724.69
2022-11-09T23:03:11.742Z,100730.75
2022-11-09T23:06:20.754Z,100740.28
2022-11-09T23:09:26.698Z,100751.81
2022-11-09T23:12:34.091Z,100750.13
2022-11-09T23:15:39.947Z,100756.91
2022-11-09T23:18:56.306Z,100756.91
2022-11-09T23:22:03.677Z,100763.38
2022-11-09T23:25:28.066Z,100764.81
2022-11-09T23:28:35.520Z,100765.09
2022-11-09T23:31:41.604Z,100767.41
2022-11-09T23:34:47.554Z,100777.41
2022-11-09T23:38:00.257Z,100784.53
2022-11-09T23:41:08.056Z,100784.31
2022-11-09T23:44:14.174Z,100787.56
2022-11-09T23:47:20.036Z,100788.34
2022-11-09T23:50:26.183Z,100794.47
2022-11-09T23:53:34.558Z,100801.75
2022-11-09T23:56:40.296Z,100814.75
2022-11-09T23:59:46.174Z,100820.50
